Terminal Aerodrome Forecast
Issued by NWS Blacksburg, VA

Current Version | Previous Version | Text Only | Print | Product List | Glossary Off
Versions: 1 2 3 4 5 6 7 8 9 10 11 12 13 14 15 16 17 18 19 20 21 22 23 24 25 26 27 28 29 30 31 32 33

000
FTUS41 KRNK 201722
TAFBLF
TAF
KBLF 201722Z 2018/2118 26008KT P6SM SCT035
     FM202000 26008KT P6SM VCTS BKN035CB
     FM210400 25005KT P6SM SCT040
      TEMPO 2109/2112 3SM BR BKN025
     FM211200 28008KT P6SM VCTS BKN025CB=

USA.gov is the U.S. government's official web portal to all federal, state and local government web resources and services.